Time;durP1;ratioP1;P1;durP2;ratioP2;P2;SDS_P1;SDS_P2;PMS_P1;PMS_P2;Temp;Humidity;BMP_temperature;BMP_pressure;BME280_temperature;BME280_humidity;BME280_pressure;Samples;Min_cycle;Max_cycle;Signal;HPM_P1;HPM_P2
2023/08/19 00:00:13;;;;;;;8.93;8.03;;;;;;;24.79;64.30;101350.50;5031887;27;97658;-49
2023/08/19 00:02:38;;;;;;;8.20;7.40;;;;;;;24.79;64.39;101337.13;5033224;27;97181;-49
2023/08/19 00:05:04;;;;;;;8.83;7.93;;;;;;;24.79;64.33;101347.69;5032837;27;96879;-50
2023/08/19 00:07:29;;;;;;;8.57;7.80;;;;;;;24.75;64.24;101339.63;5033315;27;97300;-49
2023/08/19 00:09:55;;;;;;;8.80;8.03;;;;;;;24.72;64.22;101337.94;5033899;27;97207;-49
2023/08/19 00:12:21;;;;;;;8.93;8.10;;;;;;;24.68;64.52;101336.84;5032981;27;98679;-50
2023/08/19 00:14:48;;;;;;;8.33;7.63;;;;;;;24.66;64.45;101340.22;5034379;27;97178;-50
2023/08/19 00:17:13;;;;;;;8.67;7.77;;;;;;;24.64;64.63;101340.06;5033621;27;97221;-51
2023/08/19 00:19:38;;;;;;;8.43;7.70;;;;;;;24.62;64.74;101336.34;5034229;27;97301;-50
2023/08/19 00:22:04;;;;;;;8.80;8.00;;;;;;;24.62;64.39;101341.97;5033979;27;96787;-49
2023/08/19 00:24:29;;;;;;;9.20;8.30;;;;;;;24.58;64.49;101331.09;5034181;27;97143;-50
2023/08/19 00:26:57;;;;;;;8.43;7.70;;;;;;;24.57;64.44;101333.16;5033743;27;96841;-49
2023/08/19 00:29:22;;;;;;;9.43;8.20;;;;;;;24.57;64.87;101332.44;5034536;27;97394;-49
2023/08/19 00:31:48;;;;;;;8.83;8.10;;;;;;;24.55;64.90;101327.38;5032226;27;97081;-49
2023/08/19 00:34:13;;;;;;;10.83;8.63;;;;;;;24.55;64.75;101335.81;5038152;27;97027;-49
2023/08/19 00:36:39;;;;;;;12.67;11.20;;;;;;;24.53;64.64;101321.56;5036285;27;97548;-48
2023/08/19 00:39:04;;;;;;;11.30;7.43;;;;;;;24.49;64.65;101314.84;5034422;27;101349;-50
2023/08/19 00:41:31;;;;;;;8.93;8.03;;;;;;;24.44;64.85;101313.75;5034496;27;97550;-50
2023/08/19 00:43:57;;;;;;;9.23;8.43;;;;;;;24.39;64.79;101311.19;5033131;27;96956;-51
2023/08/19 00:46:22;;;;;;;10.27;8.63;;;;;;;24.34;65.01;101309.34;5036158;27;97384;-49
2023/08/19 00:48:48;;;;;;;8.50;7.70;;;;;;;24.32;64.97;101306.34;5036565;27;97370;-50
2023/08/19 00:51:13;;;;;;;9.73;8.80;;;;;;;24.29;65.02;101299.06;5033374;27;97146;-49
2023/08/19 00:53:39;;;;;;;8.77;7.97;;;;;;;24.23;65.09;101301.34;5033830;27;97267;-49
2023/08/19 00:56:04;;;;;;;9.93;8.93;;;;;;;24.17;64.88;101304.41;5033286;27;97151;-50
2023/08/19 00:58:30;;;;;;;9.70;8.80;;;;;;;24.16;65.04;101305.69;5034966;27;97117;-50
2023/08/19 01:00:55;;;;;;;9.33;8.53;;;;;;;24.16;65.10;101302.91;5032796;27;97149;-50
2023/08/19 01:03:21;;;;;;;9.47;8.67;;;;;;;24.16;65.16;101300.09;5033368;27;97132;-49
2023/08/19 01:06:06;;;;;;;10.10;9.13;;;;;;;24.12;65.40;101299.75;5032848;27;96972;-50
2023/08/19 01:08:55;;;;;;;9.23;8.33;;;;;;;24.09;65.92;101306.50;5033114;27;97442;-49
2023/08/19 01:11:42;;;;;;;9.60;8.70;;;;;;;24.08;65.33;101307.06;5034362;27;97629;-48
2023/08/19 01:14:20;;;;;;;10.07;9.10;;;;;;;24.08;65.55;101295.81;5033842;27;97184;-50
2023/08/19 01:16:48;;;;;;;11.23;9.40;;;;;;;24.07;65.28;101294.34;5033616;27;96686;-50
2023/08/19 01:19:22;;;;;;;10.17;9.23;;;;;;;24.06;65.67;101292.84;5033493;27;97449;-49
2023/08/19 01:21:52;;;;;;;10.20;9.33;;;;;;;24.06;65.39;101290.78;5033734;27;97203;-49
2023/08/19 01:24:20;;;;;;;10.00;9.17;;;;;;;24.07;65.28;101288.72;5035136;27;97219;-49
2023/08/19 01:26:46;;;;;;;10.17;9.27;;;;;;;24.05;65.24;101294.19;5034185;27;97039;-50
2023/08/19 01:29:11;;;;;;;10.00;9.10;;;;;;;24.03;65.41;101296.75;5035133;27;96878;-49
2023/08/19 01:31:36;;;;;;;10.83;8.87;;;;;;;24.02;65.43;101284.78;5032968;27;98041;-50
2023/08/19 01:34:02;;;;;;;11.53;10.37;;;;;;;24.01;65.53;101293.78;5037723;27;96790;-50
2023/08/19 01:36:32;;;;;;;9.80;8.90;;;;;;;24.01;65.34;101290.97;5034426;27;97233;-50
2023/08/19 01:39:04;;;;;;;8.90;7.80;;;;;;;24.00;65.26;101293.06;5033977;27;97982;-49
2023/08/19 01:41:31;;;;;;;9.60;8.80;;;;;;;23.99;65.46;101288.72;5038997;27;97230;-49
2023/08/19 01:43:58;;;;;;;8.17;7.47;;;;;;;23.97;65.28;101288.56;5035634;27;97076;-50
2023/08/19 01:46:24;;;;;;;9.40;8.40;;;;;;;23.96;65.53;101286.31;5036008;27;97017;-49
2023/08/19 01:48:49;;;;;;;9.50;8.70;;;;;;;23.96;65.31;101291.94;5034165;27;97353;-49
2023/08/19 01:51:15;;;;;;;8.77;8.07;;;;;;;23.95;65.53;101291.19;5034737;27;97335;-49
2023/08/19 01:53:40;;;;;;;10.27;9.20;;;;;;;23.93;65.55;101290.28;5030484;27;97107;-49
2023/08/19 01:56:05;;;;;;;9.20;8.40;;;;;;;23.94;65.50;101288.97;5032308;27;97111;-50
2023/08/19 01:58:31;;;;;;;9.17;8.37;;;;;;;23.93;65.78;101287.47;5036815;27;97229;-49
2023/08/19 02:00:56;;;;;;;10.10;9.20;;;;;;;23.94;65.46;101291.78;5032723;27;96927;-49
2023/08/19 02:03:22;;;;;;;9.30;8.40;;;;;;;23.95;65.56;101284.81;5033879;27;96671;-51
2023/08/19 02:05:47;;;;;;;9.83;8.87;;;;;;;23.93;65.40;101274.16;5035514;27;96874;-49
2023/08/19 02:08:12;;;;;;;9.03;8.27;;;;;;;23.91;65.27;101279.59;5033069;27;97415;-50
2023/08/19 02:10:37;;;;;;;14.80;9.70;;;;;;;23.90;65.43;101283.72;5034864;27;97262;-50
2023/08/19 02:13:03;;;;;;;10.70;9.60;;;;;;;23.89;65.53;101284.31;5031536;27;97226;-49
2023/08/19 02:15:28;;;;;;;10.90;9.80;;;;;;;23.87;65.65;101278.50;5032374;27;97329;-50
2023/08/19 02:17:54;;;;;;;11.33;10.33;;;;;;;23.84;65.56;101275.53;5035025;27;105785;-49
2023/08/19 02:20:19;;;;;;;9.60;8.80;;;;;;;23.82;65.56;101269.72;5037546;27;96751;-50
2023/08/19 02:22:44;;;;;;;9.47;8.43;;;;;;;23.81;65.52;101273.84;5036450;27;97140;-48
2023/08/19 02:25:10;;;;;;;9.07;8.27;;;;;;;23.78;65.71;101269.38;5036793;27;97020;-49
2023/08/19 02:27:37;;;;;;;11.23;10.23;;;;;;;23.78;65.73;101274.25;5036007;27;104254;-49
2023/08/19 02:30:03;;;;;;;10.00;9.00;;;;;;;23.77;65.77;101265.06;5034324;27;96827;-49
2023/08/19 02:32:29;;;;;;;10.63;9.57;;;;;;;23.76;65.56;101271.25;5036511;27;97140;-49
2023/08/19 02:34:54;;;;;;;10.43;9.47;;;;;;;23.75;65.51;101264.88;5036508;27;97222;-49
2023/08/19 02:37:19;;;;;;;10.20;9.20;;;;;;;23.72;65.53;101266.03;5037853;27;107304;-49
2023/08/19 02:39:45;;;;;;;9.90;8.97;;;;;;;23.71;65.85;101263.78;5037916;27;97498;-49
2023/08/19 02:42:15;;;;;;;11.07;9.97;;;;;;;23.69;65.78;101270.00;5036827;27;98918;-50
2023/08/19 02:44:41;;;;;;;11.50;9.63;;;;;;;23.68;65.84;101268.47;5036137;27;97085;-49
2023/08/19 02:47:06;;;;;;;11.17;10.07;;;;;;;23.67;65.87;101264.19;5035765;27;97514;-49
2023/08/19 02:49:31;;;;;;;11.83;10.70;;;;;;;23.68;66.02;101273.34;5037030;27;101861;-50
2023/08/19 02:51:57;;;;;;;9.80;9.00;;;;;;;23.67;66.07;101272.63;5036021;27;97085;-50
2023/08/19 02:54:23;;;;;;;11.30;10.17;;;;;;;23.66;65.68;101270.38;5036957;27;97099;-50
2023/08/19 02:56:48;;;;;;;11.10;10.10;;;;;;;23.64;65.54;101270.19;5038808;27;97244;-51
2023/08/19 02:59:13;;;;;;;11.57;10.40;;;;;;;23.60;65.77;101275.44;5034303;27;97021;-50
2023/08/19 03:01:39;;;;;;;11.93;9.30;;;;;;;23.56;65.73;101281.47;5036799;27;97012;-49
2023/08/19 03:04:04;;;;;;;11.43;9.57;;;;;;;23.53;65.89;101279.78;5036170;27;102556;-50
2023/08/19 03:06:30;;;;;;;10.80;9.80;;;;;;;23.48;65.88;101275.13;5038340;27;97392;-49
2023/08/19 03:08:55;;;;;;;10.80;9.73;;;;;;;23.50;65.86;101277.38;5038474;27;96581;-50
2023/08/19 03:11:20;;;;;;;12.83;9.50;;;;;;;23.47;66.31;101273.66;5036466;27;97076;-50
2023/08/19 03:13:45;;;;;;;11.73;9.80;;;;;;;23.46;65.87;101277.75;5039336;27;97031;-49
2023/08/19 03:16:11;;;;;;;10.60;9.63;;;;;;;23.44;66.04;101271.19;5033704;27;98138;-49
2023/08/19 03:18:36;;;;;;;11.77;9.70;;;;;;;23.42;66.13;101268.97;5040429;27;101329;-49
2023/08/19 03:21:01;;;;;;;10.00;9.20;;;;;;;23.41;66.01;101266.75;5034989;27;96982;-50
2023/08/19 03:23:27;;;;;;;13.83;10.30;;;;;;;23.40;66.13;101271.59;5036578;27;96843;-48
2023/08/19 03:25:53;;;;;;;11.50;10.40;;;;;;;23.38;66.03;101268.63;5037573;27;98149;-49
2023/08/19 03:28:19;;;;;;;11.57;10.50;;;;;;;23.38;66.28;101273.47;5036633;27;96991;-49
2023/08/19 03:30:44;;;;;;;10.60;9.60;;;;;;;23.40;66.16;101270.84;5035696;27;97020;-49
2023/08/19 03:33:10;;;;;;;11.20;10.20;;;;;;;23.41;66.28;101263.94;5037194;27;97331;-49
2023/08/19 03:35:35;;;;;;;11.90;10.90;;;;;;;23.40;66.41;101260.38;5037677;27;97785;-50
2023/08/19 03:38:02;;;;;;;14.90;12.07;;;;;;;23.40;66.49;101254.75;5035620;27;96776;-49
2023/08/19 03:40:27;;;;;;;12.97;11.17;;;;;;;23.40;66.28;101266.00;5036629;27;97354;-50
2023/08/19 03:42:52;;;;;;;12.87;11.60;;;;;;;23.42;66.55;101265.41;5035757;27;97065;-49
2023/08/19 03:45:18;;;;;;;14.20;12.70;;;;;;;23.40;66.54;101271.59;5036178;27;108164;-50
2023/08/19 03:47:43;;;;;;;12.87;11.57;;;;;;;23.39;66.56;101264.50;5039713;27;98124;-49
2023/08/19 03:50:08;;;;;;;13.00;11.70;;;;;;;23.40;66.59;101268.03;5036599;27;97155;-48
2023/08/19 03:52:34;;;;;;;14.07;12.57;;;;;;;23.37;66.55;101267.13;5034836;27;97581;-50
2023/08/19 03:54:59;;;;;;;12.40;11.30;;;;;;;23.35;66.56;101274.63;5034853;27;101275;-50
2023/08/19 03:57:24;;;;;;;12.23;11.10;;;;;;;23.35;66.54;101280.97;5034829;27;96797;-49
2023/08/19 03:59:50;;;;;;;14.23;12.13;;;;;;;23.34;66.73;101285.13;5033846;27;97632;-49
2023/08/19 04:02:16;;;;;;;14.37;13.07;;;;;;;23.33;66.84;101288.47;5036215;27;97242;-50
2023/08/19 04:05:00;;;;;;;13.20;11.97;;;;;;;23.31;67.18;101289.00;5033581;27;97462;-49
2023/08/19 04:07:25;;;;;;;12.40;11.27;;;;;;;23.28;66.62;101281.75;5033199;27;96840;-49
2023/08/19 04:09:52;;;;;;;13.60;12.17;;;;;;;23.26;66.55;101281.56;5037607;27;97124;-50
2023/08/19 04:12:17;;;;;;;12.23;11.03;;;;;;;23.27;66.89;101288.66;5037154;27;97369;-49
2023/08/19 04:14:43;;;;;;;13.17;11.90;;;;;;;23.26;66.90;101284.38;5036941;27;105958;-50
2023/08/19 04:17:08;;;;;;;13.93;12.53;;;;;;;23.27;66.88;101279.47;5037296;27;110731;-50
2023/08/19 04:19:34;;;;;;;13.00;11.70;;;;;;;23.29;66.92;101282.47;5036592;27;100568;-50
2023/08/19 04:22:00;;;;;;;12.23;11.07;;;;;;;23.29;66.72;101285.28;5037564;27;97412;-49
2023/08/19 04:24:25;;;;;;;14.37;12.70;;;;;;;23.29;66.78;101294.44;5034458;27;111117;-52
2023/08/19 04:26:50;;;;;;;13.47;12.20;;;;;;;23.28;66.89;101287.34;5037979;27;104789;-50
2023/08/19 04:29:16;;;;;;;13.40;12.10;;;;;;;23.29;66.98;101294.44;5034408;27;97342;-50
2023/08/19 04:31:41;;;;;;;15.90;13.80;;;;;;;23.32;66.89;101296.13;5034940;27;97226;-48
2023/08/19 04:34:06;;;;;;;13.57;12.27;;;;;;;23.34;66.88;101293.53;5036128;27;107543;-49
2023/08/19 04:36:31;;;;;;;13.20;12.00;;;;;;;23.34;66.97;101285.13;5034131;27;103982;-50
2023/08/19 04:38:57;;;;;;;13.80;12.50;;;;;;;23.33;66.81;101289.22;5032685;27;97124;-49
2023/08/19 04:41:22;;;;;;;14.67;13.23;;;;;;;23.33;67.09;101292.03;5036180;27;96816;-50
2023/08/19 04:43:47;;;;;;;14.63;13.10;;;;;;;23.34;67.20;101296.34;5034040;27;108524;-50
2023/08/19 04:46:13;;;;;;;19.87;13.50;;;;;;;23.34;66.93;101290.72;5036055;27;97260;-50
2023/08/19 04:48:38;;;;;;;13.33;12.10;;;;;;;23.33;66.95;101289.22;5037069;27;97122;-49
2023/08/19 04:51:04;;;;;;;14.60;13.10;;;;;;;23.34;66.89;101289.97;5034573;27;97070;-49
2023/08/19 04:53:30;;;;;;;14.70;13.20;;;;;;;23.34;66.89;101289.97;5036834;27;97607;-49
2023/08/19 04:56:01;;;;;;;13.90;12.43;;;;;;;23.36;67.14;101293.72;5035030;27;97074;-49
2023/08/19 04:58:27;;;;;;;15.17;13.60;;;;;;;23.38;67.32;101293.16;5036740;27;97259;-49
2023/08/19 05:00:52;;;;;;;26.80;15.33;;;;;;;23.42;67.24;101301.91;5033589;27;100063;-50
2023/08/19 05:03:17;;;;;;;16.17;14.57;;;;;;;23.42;67.25;101297.06;5032567;27;106141;-50
2023/08/19 05:05:42;;;;;;;17.73;15.00;;;;;;;23.43;67.20;101298.56;5033460;27;97347;-49
2023/08/19 05:08:08;;;;;;;15.23;12.67;;;;;;;23.46;67.09;101299.50;5033059;27;96932;-49
2023/08/19 05:10:34;;;;;;;15.43;13.83;;;;;;;23.42;67.20;101288.63;5036579;27;96831;-50
2023/08/19 05:13:00;;;;;;;14.47;12.97;;;;;;;23.46;67.19;101289.00;5033251;27;97759;-50
2023/08/19 05:15:25;;;;;;;15.20;13.77;;;;;;;23.47;67.35;101287.69;5032784;27;100923;-50
2023/08/19 05:17:50;;;;;;;18.07;14.17;;;;;;;23.50;67.38;101291.44;5032776;27;97316;-49
2023/08/19 05:20:16;;;;;;;18.17;16.37;;;;;;;23.51;67.42;101292.91;5033399;27;97206;-50
2023/08/19 05:22:41;;;;;;;17.23;15.50;;;;;;;23.54;67.24;101292.53;5037390;27;97283;-49
2023/08/19 05:25:08;;;;;;;15.57;13.93;;;;;;;23.59;67.31;101293.66;5033198;27;98303;-49
2023/08/19 05:27:34;;;;;;;18.57;16.87;;;;;;;23.62;67.52;101295.28;5033624;27;96787;-50
2023/08/19 05:29:59;;;;;;;22.57;18.47;;;;;;;23.64;67.58;101289.84;5033300;27;96690;-49
2023/08/19 05:32:24;;;;;;;36.00;21.37;;;;;;;23.68;67.40;101299.38;5032229;27;97325;-53
2023/08/19 05:34:50;;;;;;;28.23;23.03;;;;;;;23.73;67.66;101297.69;5031970;27;96798;-49
2023/08/19 05:37:15;;;;;;;20.07;16.87;;;;;;;23.74;67.53;101302.00;5033945;27;96689;-50
2023/08/19 05:39:40;;;;;;;31.57;24.17;;;;;;;23.75;67.52;101301.41;5035779;27;96992;-50
2023/08/19 05:42:06;;;;;;;44.90;26.57;;;;;;;23.80;67.83;101305.34;5033026;27;97175;-50
2023/08/19 05:44:32;;;;;;;46.67;28.67;;;;;;;23.85;67.86;101302.28;5037820;27;97072;-51
2023/08/19 05:46:57;;;;;;;48.70;24.70;;;;;;;23.91;67.80;101309.78;5032746;27;97214;-49
2023/08/19 05:49:23;;;;;;;58.60;35.87;;;;;;;23.95;67.49;101313.69;5037791;27;96845;-50
2023/08/19 05:51:48;;;;;;;58.77;31.37;;;;;;;23.98;67.67;101301.31;5033715;27;97044;-49
2023/08/19 05:54:13;;;;;;;59.87;30.87;;;;;;;24.03;67.72;101305.19;5030101;27;97751;-49
2023/08/19 05:56:39;;;;;;;75.53;36.80;;;;;;;24.07;67.69;101314.75;5030711;27;97409;-50
2023/08/19 05:59:04;;;;;;;71.73;35.37;;;;;;;24.10;67.42;101310.81;5033686;27;96926;-51
2023/08/19 06:01:29;;;;;;;41.17;26.50;;;;;;;24.15;67.65;101306.28;5030086;27;96828;-49
2023/08/19 06:03:55;;;;;;;95.83;37.30;;;;;;;24.19;67.65;101312.25;5034009;27;107662;-50
2023/08/19 06:06:20;;;;;;;79.20;45.00;;;;;;;24.22;67.50;101311.84;5036219;27;97127;-49
2023/08/19 06:08:46;;;;;;;115.53;52.37;;;;;;;24.25;67.93;101310.72;5035855;27;97191;-50
2023/08/19 06:11:11;;;;;;;71.17;34.57;;;;;;;24.30;67.84;101315.38;5036326;27;97744;-50
2023/08/19 06:13:37;;;;;;;108.93;44.93;;;;;;;24.36;67.65;101329.94;5032975;27;98437;-50
2023/08/19 06:16:04;;;;;;;101.23;43.70;;;;;;;24.42;67.46;101326.91;5029658;27;97101;-49
2023/08/19 06:18:30;;;;;;;100.80;54.13;;;;;;;24.46;67.52;101325.19;5033099;27;96923;-50
2023/08/19 06:20:56;;;;;;;219.70;81.70;;;;;;;24.50;67.59;101333.22;5033524;27;97098;-50
2023/08/19 06:23:21;;;;;;;135.83;62.10;;;;;;;24.54;67.54;101328.69;5031737;27;97726;-49
2023/08/19 06:25:48;;;;;;;193.37;82.37;;;;;;;24.57;68.02;101321.91;5032618;27;96658;-49
2023/08/19 06:28:14;;;;;;;111.83;51.70;;;;;;;24.60;67.68;101322.81;5022608;27;97232;-50
2023/08/19 06:30:39;;;;;;;93.77;41.07;;;;;;;24.63;67.88;101318.88;5030396;27;97900;-50
2023/08/19 06:33:05;;;;;;;110.07;46.80;;;;;;;24.65;67.76;101344.38;5036087;27;97622;-51
2023/08/19 06:35:31;;;;;;;226.67;92.03;;;;;;;24.72;67.89;101323.88;5032542;27;96816;-49
2023/08/19 06:38:03;;;;;;;249.53;99.33;;;;;;;24.78;67.53;101320.84;5031503;27;96931;-50
2023/08/19 06:40:33;;;;;;;120.73;52.83;;;;;;;24.85;67.85;101326.41;5031238;27;100453;-51
2023/08/19 06:42:59;;;;;;;275.53;104.70;;;;;;;24.91;67.46;101334.59;5031139;27;97272;-49
2023/08/19 06:45:26;;;;;;;278.93;108.60;;;;;;;24.96;67.86;101334.38;5026274;27;97240;-50
2023/08/19 06:47:53;;;;;;;246.33;96.27;;;;;;;25.01;67.67;101341.09;5032363;27;97127;-50
2023/08/19 06:50:19;;;;;;;389.17;174.47;;;;;;;25.07;67.55;101328.28;5032349;27;97343;-50
2023/08/19 06:52:45;;;;;;;312.67;132.83;;;;;;;25.12;67.56;101327.25;5032511;27;97612;-50
2023/08/19 06:55:12;;;;;;;384.97;142.20;;;;;;;25.19;67.71;101320.06;5031700;27;96831;-50
2023/08/19 06:57:57;;;;;;;398.33;171.40;;;;;;;25.27;67.71;101320.75;5031853;27;96863;-50
2023/08/19 07:00:23;;;;;;;260.90;115.20;;;;;;;25.31;67.65;101321.78;5031117;27;97315;-50
2023/08/19 07:02:52;;;;;;;469.53;191.40;;;;;;;25.39;67.29;101318.91;5035384;27;97730;-49
2023/08/19 07:05:19;;;;;;;113.77;52.13;;;;;;;25.46;67.52;101325.81;5037565;27;97137;-50
2023/08/19 07:07:48;;;;;;;275.40;101.90;;;;;;;25.52;67.39;101318.59;5035340;27;97113;-50
2023/08/19 07:10:19;;;;;;;526.67;208.47;;;;;;;25.59;67.46;101314.19;5036568;27;97499;-50
2023/08/19 07:12:45;;;;;;;274.73;114.17;;;;;;;25.66;67.15;101322.56;5039018;27;99256;-50
2023/08/19 07:15:14;;;;;;;508.60;201.17;;;;;;;25.76;67.14;101316.97;5032786;27;96946;-52
2023/08/19 07:17:43;;;;;;;435.87;162.03;;;;;;;25.85;67.10;101321.94;5035760;27;96664;-51
2023/08/19 07:20:11;;;;;;;219.40;83.47;;;;;;;25.92;67.02;101321.09;5036522;27;97105;-49
2023/08/19 07:22:38;;;;;;;496.20;204.37;;;;;;;25.96;67.15;101324.97;5034218;27;97410;-52
2023/08/19 07:25:05;;;;;;;532.47;228.40;;;;;;;26.06;66.98;101315.84;5034844;27;96755;-51
2023/08/19 07:27:34;;;;;;;133.37;56.07;;;;;;;26.14;66.96;101327.78;5035895;27;97015;-49
2023/08/19 07:30:02;;;;;;;220.60;92.33;;;;;;;26.20;66.75;101316.94;5034471;27;97188;-51
2023/08/19 07:32:30;;;;;;;419.33;169.80;;;;;;;26.28;66.75;101323.97;5033995;27;97337;-51
2023/08/19 07:34:56;;;;;;;400.27;142.83;;;;;;;26.36;66.68;101321.78;5036772;27;96723;-50
2023/08/19 07:37:21;;;;;;;408.97;169.63;;;;;;;26.45;66.42;101332.34;5034624;27;97073;-50
2023/08/19 07:39:47;;;;;;;473.83;181.13;;;;;;;26.53;66.48;101335.06;5036064;27;97416;-51
2023/08/19 07:42:13;;;;;;;495.23;191.50;;;;;;;26.61;66.31;101344.16;5035083;27;97111;-50
2023/08/19 07:44:38;;;;;;;581.17;235.93;;;;;;;26.66;66.06;101335.41;5038606;27;97027;-51
2023/08/19 07:47:04;;;;;;;633.17;235.00;;;;;;;26.72;66.30;101335.13;5035972;27;96929;-50
2023/08/19 07:49:29;;;;;;;535.03;207.97;;;;;;;26.81;66.23;101336.50;5028617;27;97043;-51
2023/08/19 07:51:54;;;;;;;434.13;175.77;;;;;;;26.88;65.96;101341.28;5030275;27;108799;-51
2023/08/19 07:54:22;;;;;;;344.03;133.47;;;;;;;26.96;65.71;101336.25;5037853;27;97128;-50
2023/08/19 07:56:47;;;;;;;316.60;108.63;;;;;;;27.06;65.40;101345.50;5034847;27;96513;-50
2023/08/19 07:59:13;;;;;;;342.10;129.67;;;;;;;27.14;65.47;101332.72;5035797;27;97232;-50
2023/08/19 08:01:38;;;;;;;331.23;113.40;;;;;;;27.22;65.43;101324.09;5030542;27;97174;-50
2023/08/19 08:04:04;;;;;;;208.97;82.43;;;;;;;27.32;65.44;101319.19;5032475;27;96545;-50
2023/08/19 08:06:29;;;;;;;295.63;107.17;;;;;;;27.43;65.24;101321.47;5036381;27;96692;-50
2023/08/19 08:08:55;;;;;;;318.73;113.13;;;;;;;27.53;64.94;101318.59;5035401;27;97418;-50
2023/08/19 08:11:20;;;;;;;252.97;100.17;;;;;;;27.60;64.62;101321.28;5032859;27;101862;-50
2023/08/19 08:13:45;;;;;;;216.50;81.10;;;;;;;27.65;64.44;101308.94;5032558;27;102737;-49
2023/08/19 08:16:11;;;;;;;344.23;99.87;;;;;;;27.74;64.53;101316.66;5033525;27;96979;-49
2023/08/19 08:18:36;;;;;;;286.63;101.00;;;;;;;27.86;64.41;101311.13;5037725;27;97291;-51
2023/08/19 08:21:02;;;;;;;316.97;95.40;;;;;;;27.96;64.25;101315.41;5036636;27;96704;-50
2023/08/19 08:23:27;;;;;;;258.93;82.60;;;;;;;28.06;64.18;101321.84;5035302;27;96955;-50
2023/08/19 08:25:52;;;;;;;35.17;21.83;;;;;;;28.19;63.99;101317.75;5034667;27;96962;-50
2023/08/19 08:28:17;;;;;;;38.13;21.60;;;;;;;28.30;63.75;101311.47;5036027;27;97032;-50
2023/08/19 08:30:43;;;;;;;15.50;14.00;;;;;;;28.41;63.41;101313.66;5035497;27;109399;-50
2023/08/19 08:33:08;;;;;;;271.13;93.03;;;;;;;28.52;63.42;101306.59;5035686;27;97006;-50
2023/08/19 08:35:34;;;;;;;140.67;53.77;;;;;;;28.60;62.89;101307.16;5032622;27;97215;-49
2023/08/19 08:37:59;;;;;;;53.87;20.33;;;;;;;28.73;62.62;101304.56;5036208;27;97243;-50
2023/08/19 08:40:24;;;;;;;131.97;49.53;;;;;;;28.83;62.49;101310.19;5039229;27;98619;-50
2023/08/19 08:42:52;;;;;;;13.50;12.07;;;;;;;28.95;62.47;101310.97;5039465;27;97129;-50
2023/08/19 08:45:19;;;;;;;12.73;11.47;;;;;;;29.09;62.22;101305.50;5036268;27;96985;-50
2023/08/19 08:47:45;;;;;;;40.27;19.20;;;;;;;29.21;62.00;101312.75;5036834;27;97500;-51
2023/08/19 08:50:11;;;;;;;40.07;21.57;;;;;;;29.35;61.59;101313.69;5033036;27;96675;-51
2023/08/19 08:52:39;;;;;;;109.17;39.50;;;;;;;29.49;61.85;101320.25;5038076;27;96639;-50
2023/08/19 08:55:05;;;;;;;36.57;22.50;;;;;;;29.66;61.64;101307.88;5036217;27;96957;-49
2023/08/19 08:57:31;;;;;;;67.83;32.60;;;;;;;29.78;61.95;101314.34;5038187;27;97836;-51
2023/08/19 08:59:56;;;;;;;96.27;33.87;;;;;;;29.91;61.17;101318.69;5035707;27;96740;-50
2023/08/19 09:02:25;;;;;;;12.03;10.43;;;;;;;30.00;60.69;101320.69;5035284;27;97126;-50
2023/08/19 09:04:51;;;;;;;9.97;9.10;;;;;;;30.06;60.21;101330.31;5037022;27;97526;-50
2023/08/19 09:07:24;;;;;;;15.27;12.00;;;;;;;30.12;59.45;101322.19;5033548;27;96650;-50
2023/08/19 09:09:50;;;;;;;14.53;11.70;;;;;;;30.21;60.17;101320.56;5036983;27;97133;-50
2023/08/19 09:12:16;;;;;;;10.60;9.73;;;;;;;30.32;59.82;101320.63;5033238;27;96726;-52
2023/08/19 09:14:43;;;;;;;11.40;10.17;;;;;;;30.43;60.01;101321.97;5042260;27;96789;-51
2023/08/19 09:17:13;;;;;;;9.83;8.93;;;;;;;30.59;59.28;101322.97;5033320;27;97370;-50
2023/08/19 09:19:39;;;;;;;8.90;8.20;;;;;;;30.74;59.29;101313.19;5038744;27;98485;-50
2023/08/19 09:22:16;;;;;;;10.57;9.50;;;;;;;30.84;58.66;101320.19;5037864;27;97350;-50
2023/08/19 09:24:43;;;;;;;10.03;9.17;;;;;;;31.02;58.37;101326.25;5038202;27;97206;-52
2023/08/19 09:27:08;;;;;;;11.67;8.70;;;;;;;31.21;57.91;101317.44;5036614;27;98092;-50
2023/08/19 09:29:34;;;;;;;9.50;8.60;;;;;;;31.32;57.66;101313.06;5036928;27;97163;-50
2023/08/19 09:31:59;;;;;;;11.23;9.37;;;;;;;31.43;57.44;101318.00;5036541;27;97217;-51
2023/08/19 09:34:25;;;;;;;9.00;8.30;;;;;;;31.51;57.43;101315.59;5032432;27;97290;-50
2023/08/19 09:36:55;;;;;;;9.13;8.33;;;;;;;31.57;56.76;101313.09;5036100;27;97354;-51
2023/08/19 09:39:23;;;;;;;8.47;7.80;;;;;;;31.58;56.80;101308.91;5033891;27;97211;-51
2023/08/19 09:41:48;;;;;;;8.73;7.93;;;;;;;31.58;56.58;101303.19;5037943;27;97036;-50
2023/08/19 09:44:14;;;;;;;9.70;8.90;;;;;;;31.60;56.82;101301.22;5035816;27;96884;-50
2023/08/19 09:46:41;;;;;;;8.27;7.57;;;;;;;31.65;56.63;101302.19;5035400;27;108208;-51
2023/08/19 09:49:07;;;;;;;8.40;7.60;;;;;;;31.75;56.44;101294.94;5035439;27;97599;-50
2023/08/19 09:51:32;;;;;;;8.73;7.93;;;;;;;31.89;56.36;101289.25;5039650;27;104858;-50
2023/08/19 09:54:09;;;;;;;9.00;8.20;;;;;;;32.04;55.22;101288.72;5030827;27;97083;-50
2023/08/19 09:56:35;;;;;;;9.23;7.73;;;;;;;32.18;55.76;101289.44;5033783;27;97137;-50
2023/08/19 09:59:00;;;;;;;8.10;7.40;;;;;;;32.31;55.43;101288.72;5032085;27;97566;-51
2023/08/19 10:01:27;;;;;;;8.70;8.00;;;;;;;32.42;55.33;101287.13;5029446;27;96819;-52
2023/08/19 10:03:53;;;;;;;7.57;6.97;;;;;;;32.48;54.92;101296.78;5033526;27;97734;-51
2023/08/19 10:06:31;;;;;;;8.63;7.93;;;;;;;32.52;53.56;101299.81;5035978;27;97083;-51
2023/08/19 10:09:06;;;;;;;8.47;7.77;;;;;;;32.50;53.02;101290.47;5033947;27;97190;-50
2023/08/19 10:11:35;;;;;;;8.30;7.53;;;;;;;32.57;54.28;101300.06;5035077;27;97091;-50
2023/08/19 10:14:03;;;;;;;7.67;7.10;;;;;;;32.63;54.22;101291.81;5037041;27;97010;-50
2023/08/19 10:16:32;;;;;;;8.53;7.83;;;;;;;32.69;54.36;101294.97;5034312;27;99234;-51
2023/08/19 10:18:59;;;;;;;8.80;8.00;;;;;;;32.77;54.40;101284.72;5037132;27;100367;-50
2023/08/19 10:21:26;;;;;;;8.00;7.40;;;;;;;32.84;54.29;101286.50;5036427;27;97201;-50
2023/08/19 10:23:52;;;;;;;8.00;7.40;;;;;;;32.86;53.47;101286.63;5039419;27;96875;-51
2023/08/19 10:26:18;;;;;;;8.13;7.33;;;;;;;32.89;53.52;101290.31;5032536;27;96710;-51
2023/08/19 10:29:05;;;;;;;8.30;7.60;;;;;;;32.96;52.70;101289.25;5035967;27;97123;-51
2023/08/19 10:31:31;;;;;;;7.50;6.90;;;;;;;33.03;52.95;101293.88;5031526;27;97319;-50
2023/08/19 10:33:57;;;;;;;6.93;6.33;;;;;;;33.04;52.83;101290.41;5036156;27;96839;-50
2023/08/19 10:36:28;;;;;;;7.27;6.70;;;;;;;33.08;52.18;101284.16;5033211;27;97356;-50
2023/08/19 10:39:00;;;;;;;7.20;6.50;;;;;;;33.17;51.58;101283.94;5039072;27;96963;-51
2023/08/19 10:41:29;;;;;;;6.73;6.10;;;;;;;33.23;51.99;101277.75;5032678;27;97176;-50
2023/08/19 10:43:58;;;;;;;5.70;5.30;;;;;;;33.29;51.45;101286.63;5038837;27;96766;-51
2023/08/19 10:46:33;;;;;;;6.33;5.10;;;;;;;33.30;50.61;101290.22;5038380;27;97423;-50
2023/08/19 10:48:59;;;;;;;5.73;5.33;;;;;;;33.30;51.07;101293.81;5039013;27;97037;-52
2023/08/19 10:51:47;;;;;;;6.17;5.63;;;;;;;33.30;50.04;101288.09;5035075;27;97025;-50
2023/08/19 10:54:13;;;;;;;5.87;5.40;;;;;;;33.37;51.00;101292.00;5039453;27;97227;-51
2023/08/19 10:56:52;;;;;;;6.00;5.60;;;;;;;33.40;50.17;101293.56;5038730;27;96618;-50
2023/08/19 10:59:21;;;;;;;5.77;5.27;;;;;;;33.41;50.90;101281.50;5035021;27;97719;-51
2023/08/19 11:01:46;;;;;;;5.40;5.00;;;;;;;33.45;50.68;101278.84;5039282;27;97174;-50
2023/08/19 11:04:12;;;;;;;5.47;5.07;;;;;;;33.49;51.19;101275.44;5038026;27;96997;-51
2023/08/19 11:06:39;;;;;;;5.30;4.90;;;;;;;33.54;51.45;101271.44;5036683;27;97243;-50
2023/08/19 11:09:05;;;;;;;5.27;4.87;;;;;;;33.57;50.86;101270.91;5038464;27;97535;-51